sensor_id;sensor_type;location;lat;lon;timestamp;temperature;humidity
11474;DHT22;5793;52.238;13.438;2023-02-15T00:00:39;0.00;99.90
11474;DHT22;5793;52.238;13.438;2023-02-15T00:03:07;-0.10;99.90
11474;DHT22;5793;52.238;13.438;2023-02-15T00:05:36;-0.20;99.90
11474;DHT22;5793;52.238;13.438;2023-02-15T00:08:04;-0.20;99.90
11474;DHT22;5793;52.238;13.438;2023-02-15T00:10:31;0.00;99.90
11474;DHT22;5793;52.238;13.438;2023-02-15T00:13:00;0.00;99.90
11474;DHT22;5793;52.238;13.438;2023-02-15T00:15:27;-0.20;99.90
11474;DHT22;5793;52.238;13.438;2023-02-15T00:17:56;-0.40;99.90
11474;DHT22;5793;52.238;13.438;2023-02-15T00:20:24;-0.50;99.90
11474;DHT22;5793;52.238;13.438;2023-02-15T00:22:53;-0.60;99.90
11474;DHT22;5793;52.238;13.438;2023-02-15T00:25:21;-0.70;99.90
11474;DHT22;5793;52.238;13.438;2023-02-15T00:27:49;-0.70;99.90
11474;DHT22;5793;52.238;13.438;2023-02-15T00:30:17;-0.50;99.90
11474;DHT22;5793;52.238;13.438;2023-02-15T00:32:47;-0.40;99.90
11474;DHT22;5793;52.238;13.438;2023-02-15T00:35:15;-0.40;99.90
11474;DHT22;5793;52.238;13.438;2023-02-15T00:37:42;-0.50;99.90
11474;DHT22;5793;52.238;13.438;2023-02-15T00:40:12;-0.60;99.90
11474;DHT22;5793;52.238;13.438;2023-02-15T00:42:40;-0.80;99.90
11474;DHT22;5793;52.238;13.438;2023-02-15T00:45:08;-0.90;99.90
11474;DHT22;5793;52.238;13.438;2023-02-15T00:47:36;-0.80;99.90
11474;DHT22;5793;52.238;13.438;2023-02-15T00:50:05;-0.80;99.90
11474;DHT22;5793;52.238;13.438;2023-02-15T00:52:33;-0.90;99.90
11474;DHT22;5793;52.238;13.438;2023-02-15T00:55:01;-1.00;99.90
11474;DHT22;5793;52.238;13.438;2023-02-15T00:57:30;-1.10;99.90
11474;DHT22;5793;52.238;13.438;2023-02-15T00:59:57;-1.10;99.90
11474;DHT22;5793;52.238;13.438;2023-02-15T01:02:25;-1.10;99.90
11474;DHT22;5793;52.238;13.438;2023-02-15T01:04:53;-1.20;99.90
11474;DHT22;5793;52.238;13.438;2023-02-15T01:07:21;-1.30;99.90
11474;DHT22;5793;52.238;13.438;2023-02-15T01:09:52;-1.40;99.90
11474;DHT22;5793;52.238;13.438;2023-02-15T01:12:20;-1.50;99.90
11474;DHT22;5793;52.238;13.438;2023-02-15T01:14:49;-1.50;99.90
11474;DHT22;5793;52.238;13.438;2023-02-15T01:17:17;-1.60;99.90
11474;DHT22;5793;52.238;13.438;2023-02-15T01:19:44;-1.60;99.90
11474;DHT22;5793;52.238;13.438;2023-02-15T01:22:12;-1.60;99.90
11474;DHT22;5793;52.238;13.438;2023-02-15T01:24:40;-1.60;99.90
11474;DHT22;5793;52.238;13.438;2023-02-15T01:27:08;-1.50;99.90
11474;DHT22;5793;52.238;13.438;2023-02-15T01:29:36;-1.50;99.90
11474;DHT22;5793;52.238;13.438;2023-02-15T01:32:05;-1.50;99.90
11474;DHT22;5793;52.238;13.438;2023-02-15T01:34:33;-1.40;99.90
11474;DHT22;5793;52.238;13.438;2023-02-15T01:37:01;-1.30;99.90
11474;DHT22;5793;52.238;13.438;2023-02-15T01:39:32;-1.20;99.90
11474;DHT22;5793;52.238;13.438;2023-02-15T01:42:00;-1.20;99.90
11474;DHT22;5793;52.238;13.438;2023-02-15T01:44:51;-1.20;99.90
11474;DHT22;5793;52.238;13.438;2023-02-15T01:47:32;-1.40;99.90
11474;DHT22;5793;52.238;13.438;2023-02-15T01:50:08;-1.50;99.90
11474;DHT22;5793;52.238;13.438;2023-02-15T01:52:39;-1.50;99.90
11474;DHT22;5793;52.238;13.438;2023-02-15T01:55:08;-1.60;99.90
11474;DHT22;5793;52.238;13.438;2023-02-15T01:57:36;-1.60;99.90
11474;DHT22;5793;52.238;13.438;2023-02-15T02:00:06;-1.60;99.90
11474;DHT22;5793;52.238;13.438;2023-02-15T02:02:35;-1.50;99.90
11474;DHT22;5793;52.238;13.438;2023-02-15T02:05:05;-1.50;99.90
11474;DHT22;5793;52.238;13.438;2023-02-15T02:07:36;-1.40;99.90
11474;DHT22;5793;52.238;13.438;2023-02-15T02:10:08;-1.50;99.90
11474;DHT22;5793;52.238;13.438;2023-02-15T02:12:37;-1.60;99.90
11474;DHT22;5793;52.238;13.438;2023-02-15T02:15:07;-1.70;99.90
11474;DHT22;5793;52.238;13.438;2023-02-15T02:17:51;-1.70;99.90
11474;DHT22;5793;52.238;13.438;2023-02-15T02:20:50;-1.80;99.90
11474;DHT22;5793;52.238;13.438;2023-02-15T02:23:27;-1.90;99.90
11474;DHT22;5793;52.238;13.438;2023-02-15T02:26:28;-1.90;99.90
11474;DHT22;5793;52.238;13.438;2023-02-15T02:29:43;-2.00;99.90
11474;DHT22;5793;52.238;13.438;2023-02-15T02:35:20;-2.00;99.90
11474;DHT22;5793;52.238;13.438;2023-02-15T02:37:58;-2.10;99.90
11474;DHT22;5793;52.238;13.438;2023-02-15T02:40:37;-2.10;99.90
11474;DHT22;5793;52.238;13.438;2023-02-15T02:43:15;-2.10;99.90
11474;DHT22;5793;52.238;13.438;2023-02-15T02:46:05;-2.10;99.90
11474;DHT22;5793;52.238;13.438;2023-02-15T02:48:34;-2.00;99.90
11474;DHT22;5793;52.238;13.438;2023-02-15T02:51:03;-2.00;99.90
11474;DHT22;5793;52.238;13.438;2023-02-15T02:53:33;-1.90;99.90
11474;DHT22;5793;52.238;13.438;2023-02-15T02:56:06;-2.00;99.90
11474;DHT22;5793;52.238;13.438;2023-02-15T02:58:40;-2.00;99.90
11474;DHT22;5793;52.238;13.438;2023-02-15T03:01:15;-2.00;99.90
11474;DHT22;5793;52.238;13.438;2023-02-15T03:03:44;-2.00;99.90
11474;DHT22;5793;52.238;13.438;2023-02-15T03:06:18;-2.00;99.90
11474;DHT22;5793;52.238;13.438;2023-02-15T03:08:49;-2.10;99.90
11474;DHT22;5793;52.238;13.438;2023-02-15T03:11:18;-2.20;99.90
11474;DHT22;5793;52.238;13.438;2023-02-15T03:13:47;-2.20;99.90
11474;DHT22;5793;52.238;13.438;2023-02-15T03:16:17;-2.30;99.90
11474;DHT22;5793;52.238;13.438;2023-02-15T03:18:55;-2.30;99.90
11474;DHT22;5793;52.238;13.438;2023-02-15T03:21:31;-2.30;99.90
11474;DHT22;5793;52.238;13.438;2023-02-15T03:24:03;-2.30;99.90
11474;DHT22;5793;52.238;13.438;2023-02-15T03:26:33;-2.30;99.90
11474;DHT22;5793;52.238;13.438;2023-02-15T03:29:03;-2.30;99.90
11474;DHT22;5793;52.238;13.438;2023-02-15T03:31:37;-2.40;99.90
11474;DHT22;5793;52.238;13.438;2023-02-15T03:34:08;-2.40;99.90
11474;DHT22;5793;52.238;13.438;2023-02-15T03:36:43;-2.40;99.90
11474;DHT22;5793;52.238;13.438;2023-02-15T03:39:17;-2.40;99.90
11474;DHT22;5793;52.238;13.438;2023-02-15T03:41:51;-2.40;99.90
11474;DHT22;5793;52.238;13.438;2023-02-15T03:44:27;-2.40;99.90
11474;DHT22;5793;52.238;13.438;2023-02-15T03:47:00;-2.50;99.90
11474;DHT22;5793;52.238;13.438;2023-02-15T03:49:38;-2.40;99.90
11474;DHT22;5793;52.238;13.438;2023-02-15T03:52:11;-2.40;99.90
11474;DHT22;5793;52.238;13.438;2023-02-15T03:54:40;-2.30;99.90
11474;DHT22;5793;52.238;13.438;2023-02-15T03:57:16;-2.20;99.90
11474;DHT22;5793;52.238;13.438;2023-02-15T04:00:05;-2.00;99.90
11474;DHT22;5793;52.238;13.438;2023-02-15T04:03:12;-1.80;99.90
11474;DHT22;5793;52.238;13.438;2023-02-15T04:05:45;-1.60;99.90
11474;DHT22;5793;52.238;13.438;2023-02-15T04:08:14;-1.40;99.90
11474;DHT22;5793;52.238;13.438;2023-02-15T04:10:41;-1.30;99.90
11474;DHT22;5793;52.238;13.438;2023-02-15T04:13:23;-1.20;99.90
11474;DHT22;5793;52.238;13.438;2023-02-15T04:15:54;-1.20;99.90
11474;DHT22;5793;52.238;13.438;2023-02-15T04:18:32;-1.10;99.90
11474;DHT22;5793;52.238;13.438;2023-02-15T04:21:18;-1.10;99.90
11474;DHT22;5793;52.238;13.438;2023-02-15T04:24:05;-0.90;99.90
11474;DHT22;5793;52.238;13.438;2023-02-15T04:26:51;-0.90;99.90
11474;DHT22;5793;52.238;13.438;2023-02-15T04:29:20;-1.00;99.90
11474;DHT22;5793;52.238;13.438;2023-02-15T04:31:49;-0.90;99.90
11474;DHT22;5793;52.238;13.438;2023-02-15T04:34:17;-0.80;99.90
11474;DHT22;5793;52.238;13.438;2023-02-15T04:36:45;-0.90;99.90
11474;DHT22;5793;52.238;13.438;2023-02-15T04:39:16;-0.90;99.90
11474;DHT22;5793;52.238;13.438;2023-02-15T04:41:44;-0.80;99.90
11474;DHT22;5793;52.238;13.438;2023-02-15T04:44:12;-0.90;99.90
11474;DHT22;5793;52.238;13.438;2023-02-15T04:46:40;-0.90;99.90
11474;DHT22;5793;52.238;13.438;2023-02-15T04:49:08;-0.90;99.90
11474;DHT22;5793;52.238;13.438;2023-02-15T04:51:36;-0.90;99.90
11474;DHT22;5793;52.238;13.438;2023-02-15T04:54:04;-0.90;99.90
11474;DHT22;5793;52.238;13.438;2023-02-15T04:56:33;-0.90;99.90
11474;DHT22;5793;52.238;13.438;2023-02-15T04:59:01;-0.90;99.90
11474;DHT22;5793;52.238;13.438;2023-02-15T05:01:29;-0.90;99.90
11474;DHT22;5793;52.238;13.438;2023-02-15T05:03:57;-1.00;99.90
11474;DHT22;5793;52.238;13.438;2023-02-15T05:06:25;-0.90;99.90
11474;DHT22;5793;52.238;13.438;2023-02-15T05:08:53;-0.80;99.90
11474;DHT22;5793;52.238;13.438;2023-02-15T05:11:20;-0.80;99.90
11474;DHT22;5793;52.238;13.438;2023-02-15T05:13:49;-0.90;99.90
11474;DHT22;5793;52.238;13.438;2023-02-15T05:16:17;-1.00;99.90
11474;DHT22;5793;52.238;13.438;2023-02-15T05:18:45;-1.00;99.90
11474;DHT22;5793;52.238;13.438;2023-02-15T05:21:16;-1.00;99.90
11474;DHT22;5793;52.238;13.438;2023-02-15T05:23:44;-1.10;99.90
11474;DHT22;5793;52.238;13.438;2023-02-15T05:26:14;-1.10;99.90
11474;DHT22;5793;52.238;13.438;2023-02-15T05:29:02;-1.10;99.90
11474;DHT22;5793;52.238;13.438;2023-02-15T05:31:32;-1.20;99.90
11474;DHT22;5793;52.238;13.438;2023-02-15T05:34:01;-1.10;99.90
11474;DHT22;5793;52.238;13.438;2023-02-15T05:36:29;-1.10;99.90
11474;DHT22;5793;52.238;13.438;2023-02-15T05:38:57;-1.10;99.90
11474;DHT22;5793;52.238;13.438;2023-02-15T05:41:24;-1.10;99.90
11474;DHT22;5793;52.238;13.438;2023-02-15T05:43:54;-1.20;99.90
11474;DHT22;5793;52.238;13.438;2023-02-15T05:46:24;-1.20;99.90
11474;DHT22;5793;52.238;13.438;2023-02-15T05:48:51;-1.20;99.90
11474;DHT22;5793;52.238;13.438;2023-02-15T05:51:19;-1.30;99.90
11474;DHT22;5793;52.238;13.438;2023-02-15T05:53:47;-1.30;99.90
11474;DHT22;5793;52.238;13.438;2023-02-15T05:56:15;-1.30;99.90
11474;DHT22;5793;52.238;13.438;2023-02-15T05:58:42;-1.20;99.90
11474;DHT22;5793;52.238;13.438;2023-02-15T06:01:11;-1.20;99.90
11474;DHT22;5793;52.238;13.438;2023-02-15T06:03:41;-1.20;99.90
11474;DHT22;5793;52.238;13.438;2023-02-15T06:06:09;-1.30;99.90
11474;DHT22;5793;52.238;13.438;2023-02-15T06:08:37;-1.30;99.90
11474;DHT22;5793;52.238;13.438;2023-02-15T06:11:06;-1.40;99.90
11474;DHT22;5793;52.238;13.438;2023-02-15T06:13:35;-1.40;99.90
11474;DHT22;5793;52.238;13.438;2023-02-15T06:16:04;-1.40;99.90
11474;DHT22;5793;52.238;13.438;2023-02-15T06:18:32;-1.40;99.90
11474;DHT22;5793;52.238;13.438;2023-02-15T06:21:01;-1.50;99.90
11474;DHT22;5793;52.238;13.438;2023-02-15T06:23:29;-1.50;99.90
11474;DHT22;5793;52.238;13.438;2023-02-15T06:25:57;-1.50;99.90
11474;DHT22;5793;52.238;13.438;2023-02-15T06:28:25;-1.50;99.90
11474;DHT22;5793;52.238;13.438;2023-02-15T06:30:53;-1.40;99.90
11474;DHT22;5793;52.238;13.438;2023-02-15T06:33:21;-1.50;99.90
11474;DHT22;5793;52.238;13.438;2023-02-15T06:35:49;-1.40;99.90
11474;DHT22;5793;52.238;13.438;2023-02-15T06:38:18;-1.40;99.90
11474;DHT22;5793;52.238;13.438;2023-02-15T06:40:46;-1.40;99.90
11474;DHT22;5793;52.238;13.438;2023-02-15T06:43:14;-1.40;99.90
11474;DHT22;5793;52.238;13.438;2023-02-15T06:45:45;-1.30;99.90
11474;DHT22;5793;52.238;13.438;2023-02-15T06:48:13;-1.30;99.90
11474;DHT22;5793;52.238;13.438;2023-02-15T06:50:44;-1.30;99.90
11474;DHT22;5793;52.238;13.438;2023-02-15T06:53:11;-1.40;99.90
11474;DHT22;5793;52.238;13.438;2023-02-15T06:55:40;-1.50;99.90
11474;DHT22;5793;52.238;13.438;2023-02-15T06:58:08;-1.50;99.90
11474;DHT22;5793;52.238;13.438;2023-02-15T07:00:36;-1.50;99.90
11474;DHT22;5793;52.238;13.438;2023-02-15T07:03:04;-1.40;99.90
11474;DHT22;5793;52.238;13.438;2023-02-15T07:05:33;-1.30;99.90
11474;DHT22;5793;52.238;13.438;2023-02-15T07:08:01;-1.30;99.90
11474;DHT22;5793;52.238;13.438;2023-02-15T07:10:29;-1.20;99.90
11474;DHT22;5793;52.238;13.438;2023-02-15T07:12:58;-1.10;99.90
11474;DHT22;5793;52.238;13.438;2023-02-15T07:15:25;-1.00;99.90
11474;DHT22;5793;52.238;13.438;2023-02-15T07:17:53;-1.00;99.90
11474;DHT22;5793;52.238;13.438;2023-02-15T07:20:22;-1.00;99.90
11474;DHT22;5793;52.238;13.438;2023-02-15T07:22:50;-1.20;99.90
11474;DHT22;5793;52.238;13.438;2023-02-15T07:25:18;-1.20;99.90
11474;DHT22;5793;52.238;13.438;2023-02-15T07:27:46;-1.10;99.90
11474;DHT22;5793;52.238;13.438;2023-02-15T07:30:16;-1.00;99.90
11474;DHT22;5793;52.238;13.438;2023-02-15T07:32:44;-1.00;99.90
11474;DHT22;5793;52.238;13.438;2023-02-15T07:35:35;-1.00;99.90
11474;DHT22;5793;52.238;13.438;2023-02-15T07:38:03;-0.80;99.90
11474;DHT22;5793;52.238;13.438;2023-02-15T07:40:30;-0.80;99.90
11474;DHT22;5793;52.238;13.438;2023-02-15T07:42:58;-0.70;99.90
11474;DHT22;5793;52.238;13.438;2023-02-15T07:45:27;-0.70;99.90
11474;DHT22;5793;52.238;13.438;2023-02-15T07:47:55;-0.60;99.90
11474;DHT22;5793;52.238;13.438;2023-02-15T07:50:23;-0.50;99.90
11474;DHT22;5793;52.238;13.438;2023-02-15T07:52:51;-0.50;99.90
11474;DHT22;5793;52.238;13.438;2023-02-15T07:55:18;-0.40;99.90
11474;DHT22;5793;52.238;13.438;2023-02-15T07:57:48;-0.30;99.90
11474;DHT22;5793;52.238;13.438;2023-02-15T08:00:18;-0.20;99.90
11474;DHT22;5793;52.238;13.438;2023-02-15T08:02:49;-0.10;99.90
11474;DHT22;5793;52.238;13.438;2023-02-15T08:05:38;0.00;99.90
11474;DHT22;5793;52.238;13.438;2023-02-15T08:08:07;0.20;99.90
11474;DHT22;5793;52.238;13.438;2023-02-15T08:10:35;0.20;99.90
11474;DHT22;5793;52.238;13.438;2023-02-15T08:13:20;0.30;99.90
11474;DHT22;5793;52.238;13.438;2023-02-15T08:15:48;0.40;99.90
11474;DHT22;5793;52.238;13.438;2023-02-15T08:18:18;0.30;99.90
11474;DHT22;5793;52.238;13.438;2023-02-15T08:20:49;0.40;99.90
11474;DHT22;5793;52.238;13.438;2023-02-15T08:23:16;0.40;99.90
11474;DHT22;5793;52.238;13.438;2023-02-15T08:25:44;0.70;99.90
11474;DHT22;5793;52.238;13.438;2023-02-15T08:28:12;0.80;99.90
11474;DHT22;5793;52.238;13.438;2023-02-15T08:30:42;0.90;99.90
11474;DHT22;5793;52.238;13.438;2023-02-15T08:33:10;1.10;99.90
11474;DHT22;5793;52.238;13.438;2023-02-15T08:35:39;1.20;99.90
11474;DHT22;5793;52.238;13.438;2023-02-15T08:38:07;1.30;99.90
11474;DHT22;5793;52.238;13.438;2023-02-15T08:40:34;1.50;99.90
11474;DHT22;5793;52.238;13.438;2023-02-15T08:43:04;1.60;99.90
11474;DHT22;5793;52.238;13.438;2023-02-15T08:45:33;1.50;99.90
11474;DHT22;5793;52.238;13.438;2023-02-15T08:48:01;1.60;99.90
11474;DHT22;5793;52.238;13.438;2023-02-15T08:50:29;1.80;99.90
11474;DHT22;5793;52.238;13.438;2023-02-15T08:52:58;1.90;99.90
11474;DHT22;5793;52.238;13.438;2023-02-15T08:55:26;2.00;99.90
11474;DHT22;5793;52.238;13.438;2023-02-15T08:57:54;2.30;99.90
11474;DHT22;5793;52.238;13.438;2023-02-15T09:00:22;2.40;99.90
11474;DHT22;5793;52.238;13.438;2023-02-15T09:02:51;2.40;99.90
11474;DHT22;5793;52.238;13.438;2023-02-15T09:05:19;2.60;99.90
11474;DHT22;5793;52.238;13.438;2023-02-15T09:07:47;2.60;99.90
11474;DHT22;5793;52.238;13.438;2023-02-15T09:10:16;2.50;99.90
11474;DHT22;5793;52.238;13.438;2023-02-15T09:12:44;2.60;99.90
11474;DHT22;5793;52.238;13.438;2023-02-15T09:15:12;2.70;99.90
11474;DHT22;5793;52.238;13.438;2023-02-15T09:17:39;2.70;99.90
11474;DHT22;5793;52.238;13.438;2023-02-15T09:20:08;2.70;99.90
11474;DHT22;5793;52.238;13.438;2023-02-15T09:22:36;2.70;99.90
11474;DHT22;5793;52.238;13.438;2023-02-15T09:25:04;2.80;99.90
11474;DHT22;5793;52.238;13.438;2023-02-15T09:27:33;2.90;99.90
11474;DHT22;5793;52.238;13.438;2023-02-15T09:30:01;3.00;99.90
11474;DHT22;5793;52.238;13.438;2023-02-15T09:32:29;2.80;99.90
11474;DHT22;5793;52.238;13.438;2023-02-15T09:34:57;3.20;99.90
11474;DHT22;5793;52.238;13.438;2023-02-15T09:37:25;3.70;99.90
11474;DHT22;5793;52.238;13.438;2023-02-15T09:39:52;4.00;99.90
11474;DHT22;5793;52.238;13.438;2023-02-15T09:42:52;4.30;99.90
11474;DHT22;5793;52.238;13.438;2023-02-15T09:45:37;4.50;99.90
11474;DHT22;5793;52.238;13.438;2023-02-15T09:48:30;5.80;99.90
11474;DHT22;5793;52.238;13.438;2023-02-15T09:51:24;7.10;99.90
11474;DHT22;5793;52.238;13.438;2023-02-15T09:54:08;8.90;99.90
11474;DHT22;5793;52.238;13.438;2023-02-15T09:56:39;10.70;99.90
11474;DHT22;5793;52.238;13.438;2023-02-15T09:59:18;12.00;99.90
11474;DHT22;5793;52.238;13.438;2023-02-15T10:01:53;14.40;99.90
11474;DHT22;5793;52.238;13.438;2023-02-15T10:04:43;16.60;85.80
11474;DHT22;5793;52.238;13.438;2023-02-15T10:07:22;18.20;71.60
11474;DHT22;5793;52.238;13.438;2023-02-15T10:10:05;19.40;66.80
11474;DHT22;5793;52.238;13.438;2023-02-15T10:13:09;21.00;58.30
11474;DHT22;5793;52.238;13.438;2023-02-15T10:15:53;22.10;53.20
11474;DHT22;5793;52.238;13.438;2023-02-15T10:18:42;20.60;54.20
11474;DHT22;5793;52.238;13.438;2023-02-15T10:21:23;20.30;53.40
11474;DHT22;5793;52.238;13.438;2023-02-15T10:24:13;20.50;54.20
11474;DHT22;5793;52.238;13.438;2023-02-15T10:26:44;21.00;53.60
11474;DHT22;5793;52.238;13.438;2023-02-15T10:29:18;22.10;51.40
11474;DHT22;5793;52.238;13.438;2023-02-15T10:31:58;22.30;50.20
11474;DHT22;5793;52.238;13.438;2023-02-15T10:34:35;22.10;49.80
11474;DHT22;5793;52.238;13.438;2023-02-15T10:37:18;21.80;51.30
11474;DHT22;5793;52.238;13.438;2023-02-15T10:39:57;22.50;50.10
11474;DHT22;5793;52.238;13.438;2023-02-15T10:42:37;22.80;49.00
11474;DHT22;5793;52.238;13.438;2023-02-15T10:45:19;23.20;48.90
11474;DHT22;5793;52.238;13.438;2023-02-15T10:48:10;23.70;46.70
11474;DHT22;5793;52.238;13.438;2023-02-15T10:50:46;23.00;47.30
11474;DHT22;5793;52.238;13.438;2023-02-15T10:56:19;23.50;47.40
11474;DHT22;5793;52.238;13.438;2023-02-15T10:59:10;23.60;47.80
11474;DHT22;5793;52.238;13.438;2023-02-15T11:01:46;23.70;46.50
11474;DHT22;5793;52.238;13.438;2023-02-15T11:04:39;24.50;45.40
11474;DHT22;5793;52.238;13.438;2023-02-15T11:07:15;24.40;46.00
11474;DHT22;5793;52.238;13.438;2023-02-15T11:09:47;24.00;44.90
11474;DHT22;5793;52.238;13.438;2023-02-15T11:12:20;22.50;46.90
11474;DHT22;5793;52.238;13.438;2023-02-15T11:14:53;22.40;47.80
11474;DHT22;5793;52.238;13.438;2023-02-15T11:17:26;21.90;48.30
11474;DHT22;5793;52.238;13.438;2023-02-15T11:20:04;20.50;51.40
11474;DHT22;5793;52.238;13.438;2023-02-15T11:22:35;20.40;51.40
11474;DHT22;5793;52.238;13.438;2023-02-15T11:25:16;21.10;49.40
11474;DHT22;5793;52.238;13.438;2023-02-15T11:27:47;20.70;50.10
11474;DHT22;5793;52.238;13.438;2023-02-15T11:30:17;20.70;50.60
11474;DHT22;5793;52.238;13.438;2023-02-15T11:32:48;20.50;51.20
11474;DHT22;5793;52.238;13.438;2023-02-15T11:35:26;19.70;51.90
11474;DHT22;5793;52.238;13.438;2023-02-15T11:38:01;18.80;54.40
11474;DHT22;5793;52.238;13.438;2023-02-15T11:40:33;18.60;54.70
11474;DHT22;5793;52.238;13.438;2023-02-15T11:43:04;17.70;57.50
11474;DHT22;5793;52.238;13.438;2023-02-15T11:45:34;16.20;60.30
11474;DHT22;5793;52.238;13.438;2023-02-15T11:48:09;15.70;62.80
11474;DHT22;5793;52.238;13.438;2023-02-15T11:50:40;15.10;65.20
11474;DHT22;5793;52.238;13.438;2023-02-15T11:53:12;14.00;75.60
11474;DHT22;5793;52.238;13.438;2023-02-15T11:55:42;13.10;96.90
11474;DHT22;5793;52.238;13.438;2023-02-15T11:58:16;12.20;99.90
11474;DHT22;5793;52.238;13.438;2023-02-15T12:00:49;11.90;99.90
11474;DHT22;5793;52.238;13.438;2023-02-15T12:03:21;11.70;99.90
11474;DHT22;5793;52.238;13.438;2023-02-15T12:06:01;11.60;99.90
11474;DHT22;5793;52.238;13.438;2023-02-15T12:08:37;11.50;99.90
11474;DHT22;5793;52.238;13.438;2023-02-15T12:11:08;11.40;99.90
11474;DHT22;5793;52.238;13.438;2023-02-15T12:13:54;11.50;99.90
11474;DHT22;5793;52.238;13.438;2023-02-15T12:16:22;11.30;99.90
11474;DHT22;5793;52.238;13.438;2023-02-15T12:18:52;11.40;99.90
11474;DHT22;5793;52.238;13.438;2023-02-15T12:21:29;11.30;99.90
11474;DHT22;5793;52.238;13.438;2023-02-15T12:24:01;11.50;99.90
11474;DHT22;5793;52.238;13.438;2023-02-15T12:26:32;11.60;99.90
11474;DHT22;5793;52.238;13.438;2023-02-15T12:29:07;11.60;99.90
11474;DHT22;5793;52.238;13.438;2023-02-15T12:31:43;11.60;99.90
11474;DHT22;5793;52.238;13.438;2023-02-15T12:34:14;11.60;99.90
11474;DHT22;5793;52.238;13.438;2023-02-15T12:36:48;11.60;99.90
11474;DHT22;5793;52.238;13.438;2023-02-15T12:39:22;11.60;99.90
11474;DHT22;5793;52.238;13.438;2023-02-15T12:42:02;11.70;99.90
11474;DHT22;5793;52.238;13.438;2023-02-15T12:44:32;12.00;99.90
11474;DHT22;5793;52.238;13.438;2023-02-15T12:47:02;12.20;99.90
11474;DHT22;5793;52.238;13.438;2023-02-15T12:49:31;12.30;99.90
11474;DHT22;5793;52.238;13.438;2023-02-15T12:52:02;12.30;99.90
11474;DHT22;5793;52.238;13.438;2023-02-15T12:54:36;12.40;99.90
11474;DHT22;5793;52.238;13.438;2023-02-15T12:57:24;12.50;99.90
11474;DHT22;5793;52.238;13.438;2023-02-15T12:59:55;12.60;99.90
11474;DHT22;5793;52.238;13.438;2023-02-15T13:02:29;12.70;99.90
11474;DHT22;5793;52.238;13.438;2023-02-15T13:05:05;12.70;99.90
11474;DHT22;5793;52.238;13.438;2023-02-15T13:07:37;12.70;99.90
11474;DHT22;5793;52.238;13.438;2023-02-15T13:10:20;12.90;99.90
11474;DHT22;5793;52.238;13.438;2023-02-15T13:12:49;12.80;99.90
11474;DHT22;5793;52.238;13.438;2023-02-15T13:15:30;12.80;99.90
11474;DHT22;5793;52.238;13.438;2023-02-15T13:18:00;12.80;99.90
11474;DHT22;5793;52.238;13.438;2023-02-15T13:20:29;12.80;99.90
11474;DHT22;5793;52.238;13.438;2023-02-15T13:23:02;12.70;99.90
11474;DHT22;5793;52.238;13.438;2023-02-15T13:25:37;12.70;99.90
11474;DHT22;5793;52.238;13.438;2023-02-15T13:28:12;12.60;99.90
11474;DHT22;5793;52.238;13.438;2023-02-15T13:30:43;12.40;99.90
11474;DHT22;5793;52.238;13.438;2023-02-15T13:33:16;12.40;99.90
11474;DHT22;5793;52.238;13.438;2023-02-15T13:35:50;12.40;99.90
11474;DHT22;5793;52.238;13.438;2023-02-15T13:38:40;12.30;99.90
11474;DHT22;5793;52.238;13.438;2023-02-15T13:41:14;12.30;99.90
11474;DHT22;5793;52.238;13.438;2023-02-15T13:43:50;12.40;99.90
11474;DHT22;5793;52.238;13.438;2023-02-15T13:46:30;12.30;99.90
11474;DHT22;5793;52.238;13.438;2023-02-15T13:49:12;12.30;99.90
11474;DHT22;5793;52.238;13.438;2023-02-15T13:51:48;12.30;99.90
11474;DHT22;5793;52.238;13.438;2023-02-15T13:54:33;12.30;99.90
11474;DHT22;5793;52.238;13.438;2023-02-15T13:57:18;12.20;99.90
11474;DHT22;5793;52.238;13.438;2023-02-15T13:59:58;12.00;99.90
11474;DHT22;5793;52.238;13.438;2023-02-15T14:02:50;12.10;99.90
11474;DHT22;5793;52.238;13.438;2023-02-15T14:05:28;12.00;99.90
11474;DHT22;5793;52.238;13.438;2023-02-15T14:08:04;12.00;99.90
11474;DHT22;5793;52.238;13.438;2023-02-15T14:10:46;11.90;99.90
11474;DHT22;5793;52.238;13.438;2023-02-15T14:13:59;11.80;99.90
11474;DHT22;5793;52.238;13.438;2023-02-15T14:16:36;11.80;99.90
11474;DHT22;5793;52.238;13.438;2023-02-15T14:19:13;11.80;99.90
11474;DHT22;5793;52.238;13.438;2023-02-15T14:21:47;11.80;99.90
11474;DHT22;5793;52.238;13.438;2023-02-15T14:24:25;11.70;99.90
11474;DHT22;5793;52.238;13.438;2023-02-15T14:27:03;11.60;99.90
11474;DHT22;5793;52.238;13.438;2023-02-15T14:29:45;11.60;99.90
11474;DHT22;5793;52.238;13.438;2023-02-15T14:32:18;11.50;99.90
11474;DHT22;5793;52.238;13.438;2023-02-15T14:34:52;11.40;99.90
11474;DHT22;5793;52.238;13.438;2023-02-15T14:37:28;11.40;99.90
11474;DHT22;5793;52.238;13.438;2023-02-15T14:40:03;11.40;99.90
11474;DHT22;5793;52.238;13.438;2023-02-15T14:43:11;11.40;99.90
11474;DHT22;5793;52.238;13.438;2023-02-15T14:45:49;11.40;99.90
11474;DHT22;5793;52.238;13.438;2023-02-15T14:48:22;11.40;99.90
11474;DHT22;5793;52.238;13.438;2023-02-15T14:50:53;11.30;99.90
11474;DHT22;5793;52.238;13.438;2023-02-15T14:53:35;11.20;99.90
11474;DHT22;5793;52.238;13.438;2023-02-15T14:56:17;11.10;99.90
11474;DHT22;5793;52.238;13.438;2023-02-15T14:58:58;11.10;99.90
11474;DHT22;5793;52.238;13.438;2023-02-15T15:01:28;11.00;99.90
11474;DHT22;5793;52.238;13.438;2023-02-15T15:03:59;11.00;99.90
11474;DHT22;5793;52.238;13.438;2023-02-15T15:06:30;11.00;99.90
11474;DHT22;5793;52.238;13.438;2023-02-15T15:09:08;11.00;99.90
11474;DHT22;5793;52.238;13.438;2023-02-15T15:11:41;11.00;99.90
11474;DHT22;5793;52.238;13.438;2023-02-15T15:14:41;10.80;99.90
11474;DHT22;5793;52.238;13.438;2023-02-15T15:17:12;10.70;99.90
11474;DHT22;5793;52.238;13.438;2023-02-15T15:20:13;10.70;99.90
11474;DHT22;5793;52.238;13.438;2023-02-15T15:26:24;10.50;99.90
11474;DHT22;5793;52.238;13.438;2023-02-15T15:29:00;10.50;99.90
11474;DHT22;5793;52.238;13.438;2023-02-15T15:31:40;10.40;99.90
11474;DHT22;5793;52.238;13.438;2023-02-15T15:37:52;10.40;99.90
11474;DHT22;5793;52.238;13.438;2023-02-15T15:44:26;10.30;99.90
11474;DHT22;5793;52.238;13.438;2023-02-15T15:49:49;10.20;99.90
11474;DHT22;5793;52.238;13.438;2023-02-15T15:52:19;10.00;99.90
11474;DHT22;5793;52.238;13.438;2023-02-15T15:54:50;9.80;99.90
11474;DHT22;5793;52.238;13.438;2023-02-15T15:57:24;9.80;99.90
11474;DHT22;5793;52.238;13.438;2023-02-15T15:59:56;9.70;99.90
11474;DHT22;5793;52.238;13.438;2023-02-15T16:02:27;9.60;99.90
11474;DHT22;5793;52.238;13.438;2023-02-15T16:05:06;9.50;99.90
11474;DHT22;5793;52.238;13.438;2023-02-15T16:07:34;9.40;99.90
11474;DHT22;5793;52.238;13.438;2023-02-15T16:10:05;9.30;99.90
11474;DHT22;5793;52.238;13.438;2023-02-15T16:12:35;9.10;99.90
11474;DHT22;5793;52.238;13.438;2023-02-15T16:15:11;8.90;99.90
11474;DHT22;5793;52.238;13.438;2023-02-15T16:17:43;8.80;99.90
11474;DHT22;5793;52.238;13.438;2023-02-15T16:20:16;8.60;99.90
11474;DHT22;5793;52.238;13.438;2023-02-15T16:22:46;8.40;99.90
11474;DHT22;5793;52.238;13.438;2023-02-15T16:25:27;8.30;99.90
11474;DHT22;5793;52.238;13.438;2023-02-15T16:28:06;8.10;99.90
11474;DHT22;5793;52.238;13.438;2023-02-15T16:30:35;7.80;99.90